Time;durP1;ratioP1;P1;durP2;ratioP2;P2;SDS_P1;SDS_P2;PMS_P1;PMS_P2;Temp;Humidity;BMP_temperature;BMP_pressure;BME280_temperature;BME280_humidity;BME280_pressure;Samples;Min_cycle;Max_cycle;Signal;HPM_P1;HPM_P2
2024/03/02 00:00:53;;;;;;;22.02;13.55;;;8.90;99.90;;;-148.53;100.00;63986.66;5040300;28;20044;-83
2024/03/02 00:03:19;;;;;;;20.50;12.70;;;8.90;99.90;;;-148.53;100.00;63986.66;5034696;28;20061;-83
2024/03/02 00:05:51;;;;;;;20.70;13.07;;;8.90;99.90;;;-148.53;100.00;63986.66;5016148;28;20281;-82
2024/03/02 00:08:27;;;;;;;19.58;12.43;;;8.80;99.90;;;-148.53;100.00;63986.66;5035325;28;20071;-82
2024/03/02 00:10:58;;;;;;;21.45;13.77;;;8.70;99.90;;;-148.53;100.00;63986.66;5016366;28;20545;-82
2024/03/02 00:13:24;;;;;;;20.67;13.57;;;8.60;99.90;;;-148.53;100.00;63986.66;5031317;28;20056;-82
2024/03/02 00:15:57;;;;;;;20.45;13.43;;;8.50;99.90;;;-148.53;100.00;63986.66;5015457;28;20081;-83
2024/03/02 00:18:32;;;;;;;24.05;14.27;;;8.50;99.90;;;-148.53;100.00;63986.66;5031832;28;20681;-82
2024/03/02 00:20:58;;;;;;;21.80;14.05;;;8.50;99.90;;;-148.53;100.00;63986.66;5030898;28;20037;-81
2024/03/02 00:23:29;;;;;;;24.80;15.00;;;8.50;99.90;;;-148.53;100.00;63986.66;5015844;28;20044;-82
2024/03/02 00:25:56;;;;;;;23.05;14.30;;;8.50;99.90;;;-148.53;100.00;63986.66;5020772;28;20056;-82
2024/03/02 00:28:22;;;;;;;23.23;14.38;;;8.50;99.90;;;-148.53;100.00;63986.66;5020560;28;20037;-83
2024/03/02 00:31:09;;;;;;;23.75;14.77;;;8.50;99.90;;;-148.53;100.00;63986.66;5043616;28;20401;-82
2024/03/02 00:33:45;;;;;;;25.13;15.05;;;8.40;99.90;;;-148.53;100.00;63986.66;5036288;28;20026;-81
2024/03/02 00:36:15;;;;;;;26.40;15.93;;;8.50;99.90;;;-148.53;100.00;63986.66;5024853;28;20423;-83
2024/03/02 00:38:49;;;;;;;27.77;16.05;;;8.50;99.90;;;-148.53;100.00;63986.66;5019580;28;20458;-83
2024/03/02 00:41:29;;;;;;;26.85;15.15;;;8.50;99.90;;;-148.53;100.00;63986.66;5024876;28;20033;-82
2024/03/02 00:44:05;;;;;;;25.02;15.52;;;8.50;99.90;;;-148.53;100.00;63986.66;5017103;28;20061;-83
2024/03/02 00:46:43;;;;;;;24.92;15.35;;;8.60;99.90;;;-148.53;100.00;63986.66;5029366;28;20047;-83
2024/03/02 00:49:24;;;;;;;26.00;15.33;;;8.50;99.90;;;-148.53;100.00;63986.66;5024588;28;20038;-83
2024/03/02 00:51:52;;;;;;;26.45;14.95;;;8.60;99.90;;;-148.53;100.00;63986.66;5018700;28;20470;-83
2024/03/02 00:54:24;;;;;;;27.95;16.25;;;8.50;99.90;;;-148.53;100.00;63986.66;5041440;28;20540;-83
2024/03/02 00:56:50;;;;;;;27.88;15.93;;;8.50;99.90;;;-148.53;100.00;63986.66;5019306;28;20038;-82
2024/03/02 00:59:17;;;;;;;22.17;14.18;;;8.40;99.90;;;-148.53;100.00;63986.66;5021946;28;20388;-82
2024/03/02 01:01:43;;;;;;;24.88;14.93;;;8.30;99.90;;;-148.53;100.00;63986.66;5029280;28;20045;-83
2024/03/02 01:04:09;;;;;;;23.00;14.77;;;8.30;99.90;;;-148.53;100.00;63986.66;5030541;28;20653;-82
2024/03/02 01:06:35;;;;;;;23.13;15.45;;;8.30;99.90;;;-148.53;100.00;63986.66;5022282;28;20034;-82
2024/03/02 01:09:02;;;;;;;24.17;14.85;;;8.20;99.90;;;-148.53;100.00;63986.66;5027851;28;20061;-83
2024/03/02 01:11:29;;;;;;;26.15;16.42;;;8.20;99.90;;;-148.53;100.00;63986.66;5032940;28;20034;-83
2024/03/02 01:13:55;;;;;;;24.90;15.85;;;8.20;99.90;;;-148.53;100.00;63986.66;5014802;28;20045;-84
2024/03/02 01:16:21;;;;;;;26.88;16.60;;;8.10;99.90;;;-148.53;100.00;63986.66;5029951;28;20092;-83
2024/03/02 01:18:47;;;;;;;24.00;15.45;;;8.10;99.90;;;-148.53;100.00;63986.66;5020118;28;20042;-84
2024/03/02 01:21:12;;;;;;;26.00;16.08;;;8.10;99.90;;;-148.53;100.00;63986.66;5015187;28;20072;-83
2024/03/02 01:23:38;;;;;;;26.30;15.40;;;8.10;99.90;;;-148.53;100.00;63986.66;5034153;28;20041;-83
2024/03/02 01:26:04;;;;;;;29.67;16.65;;;8.10;99.90;;;-148.53;100.00;63986.66;5035883;28;20539;-83
2024/03/02 01:28:30;;;;;;;25.92;16.52;;;8.10;99.90;;;-148.53;100.00;63986.66;5031143;28;20081;-83
2024/03/02 01:30:55;;;;;;;30.15;17.95;;;8.10;99.90;;;-148.53;100.00;63986.66;5028537;28;20112;-83
2024/03/02 01:33:21;;;;;;;29.25;17.17;;;8.00;99.90;;;-148.53;100.00;63986.66;5037694;28;20457;-84
2024/03/02 01:35:47;;;;;;;30.08;17.55;;;8.00;99.90;;;-148.53;100.00;63986.66;5019681;28;20048;-84
2024/03/02 01:38:13;;;;;;;30.27;17.17;;;8.10;99.90;;;-148.53;100.00;63986.66;5020549;28;20038;-84
2024/03/02 01:40:39;;;;;;;29.67;18.17;;;8.10;99.90;;;-148.53;100.00;63986.66;5014159;28;20026;-84
2024/03/02 01:43:06;;;;;;;29.08;17.38;;;8.20;99.90;;;-148.53;100.00;63986.66;5022526;28;20486;-84
2024/03/02 01:45:32;;;;;;;31.50;17.23;;;8.30;99.90;;;-148.53;100.00;63986.66;5035601;28;20148;-84
2024/03/02 01:47:58;;;;;;;30.63;17.13;;;8.20;99.90;;;-148.53;100.00;63986.66;5034201;28;20069;-83
2024/03/02 01:50:32;;;;;;;30.77;17.77;;;8.20;99.90;;;-148.53;100.00;63986.66;5015257;28;20030;-81
2024/03/02 01:52:59;;;;;;;31.98;18.40;;;8.30;99.90;;;-148.53;100.00;63986.66;5020354;28;20041;-82
2024/03/02 01:55:25;;;;;;;30.38;18.40;;;8.30;99.90;;;-148.53;100.00;63986.66;5024487;28;20038;-80
2024/03/02 01:57:52;;;;;;;32.55;18.98;;;8.30;99.90;;;-148.53;100.00;63986.66;5015001;28;20429;-81
2024/03/02 02:00:20;;;;;;;30.50;17.55;;;8.40;99.90;;;-148.53;100.00;63986.66;5014471;28;20042;-81
2024/03/02 02:02:49;;;;;;;31.30;18.35;;;8.30;99.90;;;-148.53;100.00;63986.66;5025350;28;20390;-82
2024/03/02 02:05:15;;;;;;;31.55;18.27;;;8.40;99.90;;;-148.53;100.00;63986.66;5020246;28;20080;-81
2024/03/02 02:07:42;;;;;;;32.30;18.33;;;8.30;99.90;;;-148.53;100.00;63986.66;5025450;28;20517;-82
2024/03/02 02:10:09;;;;;;;33.13;17.95;;;8.30;99.90;;;-148.53;100.00;63986.66;5017719;28;20493;-82
2024/03/02 02:12:36;;;;;;;33.20;18.53;;;8.30;99.90;;;-148.53;100.00;63986.66;5026783;28;20041;-82
2024/03/02 02:15:02;;;;;;;36.13;19.27;;;8.20;99.90;;;-148.53;100.00;63986.66;5023544;28;20033;-82
2024/03/02 02:17:28;;;;;;;32.75;19.25;;;8.20;99.90;;;-148.53;100.00;63986.66;5023075;28;20044;-81
2024/03/02 02:19:54;;;;;;;33.03;19.73;;;8.20;99.90;;;-148.53;100.00;63986.66;5020597;28;20041;-82
2024/03/02 02:22:19;;;;;;;33.30;18.98;;;8.20;99.90;;;-148.53;100.00;63986.66;5022073;28;20119;-82
2024/03/02 02:24:45;;;;;;;32.08;18.88;;;8.20;99.90;;;-148.53;100.00;63986.66;5029802;28;20034;-81
2024/03/02 02:27:12;;;;;;;32.15;18.50;;;8.20;99.90;;;-148.53;100.00;63986.66;5023384;28;20038;-81
2024/03/02 02:29:38;;;;;;;34.15;18.05;;;8.20;99.90;;;-148.53;100.00;63986.66;5014697;28;20036;-80
2024/03/02 02:32:04;;;;;;;33.08;17.98;;;8.20;99.90;;;-148.53;100.00;63986.66;5014195;28;20042;-82
2024/03/02 02:34:30;;;;;;;31.88;18.20;;;8.20;99.90;;;-148.53;100.00;63986.66;5023593;28;20485;-81
2024/03/02 02:36:56;;;;;;;32.35;18.55;;;8.30;99.90;;;-148.53;100.00;63986.66;5024355;28;20051;-82
2024/03/02 02:39:22;;;;;;;31.35;17.60;;;8.40;99.90;;;-148.53;100.00;63986.66;5034099;28;20037;-81
2024/03/02 02:41:48;;;;;;;34.75;18.42;;;8.40;99.90;;;-148.53;100.00;63986.66;5019970;28;20112;-82
2024/03/02 02:44:14;;;;;;;32.88;17.98;;;8.50;99.90;;;-148.53;100.00;63986.66;5012860;28;20084;-82
2024/03/02 02:46:40;;;;;;;33.15;17.95;;;8.40;99.90;;;-148.53;100.00;63986.66;5011724;28;20037;-81
2024/03/02 02:49:06;;;;;;;32.78;17.48;;;8.50;99.90;;;-148.53;100.00;63986.66;5020173;28;20037;-82
2024/03/02 02:51:32;;;;;;;31.15;17.80;;;8.50;99.90;;;-148.53;100.00;63986.66;5016147;28;20030;-81
2024/03/02 02:53:58;;;;;;;30.52;17.90;;;8.40;99.90;;;-148.53;100.00;63986.66;5015925;28;20116;-80
2024/03/02 02:56:24;;;;;;;30.02;17.05;;;8.40;99.90;;;-148.53;100.00;63986.66;5020597;28;20392;-81
2024/03/02 02:58:50;;;;;;;29.42;16.05;;;8.40;99.90;;;-148.53;100.00;63986.66;5022556;28;20045;-81
2024/03/02 03:01:19;;;;;;;28.58;15.98;;;8.30;99.90;;;-148.53;100.00;63986.66;5018639;28;20342;-82
2024/03/02 03:03:45;;;;;;;26.27;15.30;;;8.40;99.90;;;-148.53;100.00;63986.66;5022023;28;20527;-82
2024/03/02 03:06:12;;;;;;;27.20;16.30;;;8.30;99.90;;;-148.53;100.00;63986.66;5012423;28;20558;-81
2024/03/02 03:08:38;;;;;;;27.90;16.25;;;8.30;99.90;;;-148.53;100.00;63986.66;5012629;28;20072;-81
2024/03/02 03:11:04;;;;;;;31.77;16.55;;;8.30;99.90;;;-148.53;100.00;63986.66;5027818;28;20037;-81
2024/03/02 03:13:34;;;;;;;28.65;16.63;;;8.40;99.90;;;-148.53;100.00;63986.66;5034256;28;20045;-81
2024/03/02 03:16:00;;;;;;;30.40;17.02;;;8.30;99.90;;;-148.53;100.00;63986.66;5023935;28;20080;-82
2024/03/02 03:18:26;;;;;;;28.48;16.80;;;8.30;99.90;;;-148.53;100.00;63986.66;5019646;28;20045;-82
2024/03/02 03:20:51;;;;;;;29.25;16.95;;;8.20;99.90;;;-148.53;100.00;63986.66;5027885;28;20560;-82
2024/03/02 03:23:17;;;;;;;30.65;16.88;;;8.10;99.90;;;-148.53;100.00;63986.66;5012598;28;20439;-82
2024/03/02 03:25:43;;;;;;;28.30;16.05;;;8.10;99.90;;;-148.53;100.00;63986.66;5031468;28;20037;-82
2024/03/02 03:28:09;;;;;;;28.33;15.93;;;8.00;99.90;;;-148.53;100.00;63986.66;5012213;28;20481;-81
2024/03/02 03:30:37;;;;;;;28.05;16.60;;;8.00;99.90;;;-148.53;100.00;63986.66;5036217;28;20052;-81
2024/03/02 03:33:04;;;;;;;;;;;7.90;99.90;;;-148.53;100.00;63986.66;5019117;28;20046;-81
2024/03/02 03:35:30;;;;;;;30.10;16.55;;;7.90;99.90;;;-148.53;100.00;63986.66;5032705;28;20325;-83
2024/03/02 03:37:55;;;;;;;29.42;16.65;;;7.80;99.90;;;-148.53;100.00;63986.66;5012541;28;20046;-82
2024/03/02 03:40:21;;;;;;;28.23;17.23;;;7.80;99.90;;;-148.53;100.00;63986.66;5021413;28;20042;-81
2024/03/02 03:42:47;;;;;;;30.33;16.77;;;7.70;99.90;;;-148.53;100.00;63986.66;5021811;28;20048;-82
2024/03/02 03:45:12;;;;;;;30.70;17.10;;;7.70;99.90;;;-148.53;100.00;63986.66;5026320;28;20048;-81
2024/03/02 03:47:38;;;;;;;30.63;18.20;;;7.60;99.90;;;-148.53;100.00;63986.66;5015344;28;20033;-81
2024/03/02 03:50:07;;;;;;;33.22;18.40;;;7.50;99.90;;;-148.53;100.00;63986.66;5017481;28;20505;-81
2024/03/02 03:52:33;;;;;;;35.63;18.17;;;7.40;99.90;;;-148.53;100.00;63986.66;5012430;28;20056;-81
2024/03/02 03:55:00;;;;;;;35.42;18.05;;;7.30;99.90;;;-148.53;100.00;63986.66;5026922;28;20121;-81
2024/03/02 03:57:26;;;;;;;33.70;17.70;;;7.40;99.90;;;-148.53;100.00;63986.66;5031555;28;20038;-81
2024/03/02 03:59:52;;;;;;;34.03;18.50;;;7.30;99.90;;;-148.53;100.00;63986.66;5014194;28;20092;-81
2024/03/02 04:02:18;;;;;;;32.92;18.73;;;7.30;99.90;;;-148.53;100.00;63986.66;5014970;28;20448;-82
2024/03/02 04:04:44;;;;;;;33.08;18.45;;;7.30;99.90;;;-148.53;100.00;63986.66;5022138;28;20038;-82
2024/03/02 04:07:10;;;;;;;33.25;18.20;;;7.30;99.90;;;-148.53;100.00;63986.66;5015820;28;20038;-82
2024/03/02 04:09:35;;;;;;;34.05;18.30;;;7.20;99.90;;;-148.53;100.00;63986.66;5027793;28;20084;-81
2024/03/02 04:12:01;;;;;;;32.88;18.17;;;7.20;99.90;;;-148.53;100.00;63986.66;5026522;28;20949;-82
2024/03/02 04:14:27;;;;;;;34.88;18.48;;;7.20;99.90;;;-148.53;100.00;63986.66;5033753;28;20041;-82
2024/03/02 04:16:52;;;;;;;34.28;19.40;;;7.10;99.90;;;-148.53;100.00;63986.66;5033044;28;20060;-82
2024/03/02 04:19:18;;;;;;;34.10;19.45;;;7.10;99.90;;;-148.53;100.00;63986.66;5022573;28;20437;-82
2024/03/02 04:21:44;;;;;;;33.63;18.75;;;7.00;99.90;;;-148.53;100.00;63986.66;5034293;28;20030;-82
2024/03/02 04:24:10;;;;;;;33.85;17.92;;;6.90;99.90;;;-148.53;100.00;63986.66;5023831;28;20045;-81
2024/03/02 04:26:35;;;;;;;35.00;19.35;;;6.80;99.90;;;-148.53;100.00;63986.66;5028338;28;20038;-82
2024/03/02 04:29:01;;;;;;;38.55;21.55;;;6.70;99.90;;;-148.53;100.00;63986.66;5030879;28;20362;-82
2024/03/02 04:31:28;;;;;;;36.65;19.27;;;6.60;99.90;;;-148.53;100.00;63986.66;5022544;28;20076;-81
2024/03/02 04:33:54;;;;;;;38.08;20.98;;;6.60;99.90;;;-148.53;100.00;63986.66;5034829;28;20032;-82
2024/03/02 04:36:21;;;;;;;36.15;19.90;;;6.60;99.90;;;-148.53;100.00;63986.66;5031324;28;20393;-82
2024/03/02 04:38:46;;;;;;;37.40;20.83;;;6.70;99.90;;;-148.53;100.00;63986.66;5018311;28;20030;-81
2024/03/02 04:41:12;;;;;;;39.28;21.33;;;6.70;99.90;;;-148.53;100.00;63986.66;5024732;28;20489;-82
2024/03/02 04:43:38;;;;;;;41.05;20.33;;;6.70;99.90;;;-148.53;100.00;63986.66;5016710;28;20120;-82
2024/03/02 04:46:06;;;;;;;40.70;20.67;;;6.80;99.90;;;-148.53;100.00;63986.66;5016160;28;20034;-82
2024/03/02 04:48:32;;;;;;;39.53;21.10;;;6.70;99.90;;;-148.53;100.00;63986.66;5030005;28;20121;-81
2024/03/02 04:50:58;;;;;;;37.75;20.88;;;6.80;99.90;;;-148.53;100.00;63986.66;5020809;28;20029;-81
2024/03/02 04:53:24;;;;;;;33.50;19.60;;;6.70;99.90;;;-148.53;100.00;63986.66;5028624;28;20448;-82
2024/03/02 04:58:21;;;;;;;34.40;18.58;;;6.80;99.90;;;-148.53;100.00;63986.66;5019799;28;20504;-82
2024/03/02 05:00:47;;;;;;;34.00;18.58;;;6.70;99.90;;;-148.53;100.00;63986.66;5015210;28;20038;-82
2024/03/02 05:03:13;;;;;;;36.45;19.13;;;6.60;99.90;;;-148.53;100.00;63986.66;5027621;28;20049;-82
2024/03/02 05:05:39;;;;;;;33.58;19.33;;;6.50;99.90;;;-148.53;100.00;63986.66;5013569;28;20044;-82
2024/03/02 05:08:05;;;;;;;35.88;19.27;;;6.30;99.90;;;-148.53;100.00;63986.66;5024239;28;20049;-82
2024/03/02 05:10:31;;;;;;;39.17;19.45;;;6.10;99.90;;;-148.53;100.00;63986.66;5028622;28;20068;-82
2024/03/02 05:12:57;;;;;;;34.05;19.23;;;5.90;99.90;;;-148.53;100.00;63986.66;5030017;28;20467;-82
2024/03/02 05:15:23;;;;;;;36.53;19.90;;;5.80;99.90;;;-148.53;100.00;63986.66;5022518;28;20481;-81
2024/03/02 05:17:48;;;;;;;38.90;19.75;;;5.80;99.90;;;-148.53;100.00;63986.66;5036146;28;20112;-82
2024/03/02 05:20:14;;;;;;;38.40;19.13;;;5.70;99.90;;;-148.53;100.00;63986.66;5022819;28;20433;-82
2024/03/02 05:22:40;;;;;;;34.97;19.85;;;5.80;99.90;;;-148.53;100.00;63986.66;5029572;28;20045;-82
2024/03/02 05:25:06;;;;;;;37.15;20.02;;;5.70;99.90;;;-148.53;100.00;63986.66;5026722;28;20033;-82
2024/03/02 05:27:33;;;;;;;40.70;21.65;;;5.70;99.90;;;-148.53;100.00;63986.66;5026397;28;20029;-82
2024/03/02 05:29:59;;;;;;;40.15;20.40;;;5.80;99.90;;;-148.53;100.00;63986.66;5034485;28;20113;-82
2024/03/02 05:32:25;;;;;;;38.80;20.17;;;6.00;99.90;;;-148.53;100.00;63986.66;5037661;28;20076;-81
2024/03/02 05:34:51;;;;;;;36.10;20.40;;;6.10;99.90;;;-148.53;100.00;63986.66;5035933;28;20037;-82
2024/03/02 05:37:17;;;;;;;37.78;20.00;;;6.00;99.90;;;-148.53;100.00;63986.66;5045607;28;20041;-82
2024/03/02 05:39:46;;;;;;;39.17;20.50;;;5.90;99.90;;;-148.53;100.00;63986.66;5029313;28;20045;-82
2024/03/02 05:42:11;;;;;;;40.25;21.20;;;5.90;99.90;;;-148.53;100.00;63986.66;5028955;28;20120;-82
2024/03/02 05:44:37;;;;;;;40.40;21.25;;;5.80;99.90;;;-148.53;100.00;63986.66;5031440;28;20171;-82
2024/03/02 05:47:03;;;;;;;39.95;21.13;;;5.80;99.90;;;-148.53;100.00;63986.66;5035760;28;20049;-82
2024/03/02 05:49:29;;;;;;;42.17;21.02;;;5.70;99.90;;;-148.53;100.00;63986.66;5054677;28;20045;-82
2024/03/02 05:51:55;;;;;;;39.60;20.75;;;5.50;99.90;;;-148.53;100.00;63986.66;5035670;28;20041;-83
2024/03/02 05:54:21;;;;;;;41.35;21.38;;;5.30;99.90;;;-148.53;100.00;63986.66;5031740;28;20037;-83
2024/03/02 05:56:48;;;;;;;38.38;21.52;;;5.20;99.90;;;-148.53;100.00;63986.66;5039050;28;20034;-83
2024/03/02 05:59:14;;;;;;;40.22;21.25;;;5.20;99.90;;;-148.53;100.00;63986.66;5026179;28;20052;-82
2024/03/02 06:01:40;;;;;;;43.10;22.42;;;5.20;99.90;;;-148.53;100.00;63986.66;5034171;28;20078;-83
2024/03/02 06:04:06;;;;;;;47.30;23.92;;;5.40;99.90;;;-148.53;100.00;63986.66;5036051;28;20033;-81
2024/03/02 06:06:33;;;;;;;43.55;23.25;;;5.60;99.90;;;-148.53;100.00;63986.66;5037744;28;20040;-82
2024/03/02 06:09:02;;;;;;;41.40;22.08;;;5.80;99.90;;;-148.53;100.00;63986.66;5035250;28;20532;-82
2024/03/02 06:11:28;;;;;;;43.22;22.00;;;6.10;99.90;;;-148.53;100.00;63986.66;5036152;28;20071;-81
2024/03/02 06:13:54;;;;;;;40.25;21.33;;;6.10;99.90;;;-148.53;100.00;63986.66;5031912;28;20046;-82
2024/03/02 06:16:19;;;;;;;41.17;21.48;;;6.10;99.90;;;-148.53;100.00;63986.66;5039214;28;20064;-82
2024/03/02 06:18:45;;;;;;;38.83;20.95;;;6.10;99.90;;;-148.53;100.00;63986.66;5033017;28;20536;-82
2024/03/02 06:21:11;;;;;;;40.20;21.70;;;6.20;99.90;;;-148.53;100.00;63986.66;5055358;28;20040;-82
2024/03/02 06:23:36;;;;;;;41.30;21.17;;;6.20;99.90;;;-148.53;100.00;63986.66;5041146;28;20530;-82
2024/03/02 06:26:02;;;;;;;40.20;21.35;;;6.20;99.90;;;-148.53;100.00;63986.66;5029056;28;20050;-82
2024/03/02 06:28:28;;;;;;;39.13;21.52;;;6.20;99.90;;;-148.53;100.00;63986.66;5035150;28;20063;-82
2024/03/02 06:30:54;;;;;;;39.67;21.48;;;6.30;99.90;;;-148.53;100.00;63986.66;5036424;28;20041;-82
2024/03/02 06:33:20;;;;;;;39.08;21.25;;;6.40;99.90;;;-148.53;100.00;63986.66;5033307;28;20047;-83
2024/03/02 06:35:45;;;;;;;36.70;20.40;;;6.40;99.90;;;-148.53;100.00;63986.66;5036601;28;20116;-82
2024/03/02 06:38:11;;;;;;;42.22;21.95;;;6.40;99.90;;;-148.53;100.00;63986.66;5030173;28;20054;-82
2024/03/02 06:40:40;;;;;;;37.67;20.27;;;6.40;99.90;;;-148.53;100.00;63986.66;5052745;28;20092;-82
2024/03/02 06:43:06;;;;;;;38.00;21.00;;;6.50;99.90;;;-148.53;100.00;63986.66;5034543;28;20508;-81
2024/03/02 06:45:34;;;;;;;40.95;20.90;;;6.60;99.90;;;-148.53;100.00;63986.66;5051720;28;20026;-81
2024/03/02 06:48:00;;;;;;;37.28;20.30;;;6.70;99.90;;;-148.53;100.00;63986.66;5031931;28;20091;-83
2024/03/02 06:50:27;;;;;;;35.05;20.70;;;6.70;99.90;;;-148.53;100.00;63986.66;5035512;28;20060;-82
2024/03/02 06:52:52;;;;;;;38.50;20.93;;;6.70;99.90;;;-148.53;100.00;63986.66;5050389;28;20108;-82
2024/03/02 06:55:18;;;;;;;38.17;20.45;;;6.70;99.90;;;-148.53;100.00;63986.66;5037292;28;20389;-81
2024/03/02 06:57:44;;;;;;;37.67;20.77;;;6.70;99.90;;;-148.53;100.00;63986.66;5037659;28;20068;-82
2024/03/02 07:00:10;;;;;;;36.85;20.15;;;7.00;99.90;;;-148.53;100.00;63986.66;5030640;28;20057;-82
2024/03/02 07:02:36;;;;;;;40.08;20.98;;;7.20;99.90;;;-148.53;100.00;63986.66;5043275;28;20576;-85
2024/03/02 07:05:03;;;;;;;34.72;19.35;;;7.40;99.90;;;-148.53;100.00;63986.66;5034463;28;20049;-81
2024/03/02 07:07:29;;;;;;;35.92;19.98;;;7.60;99.90;;;-148.53;100.00;63986.66;5035521;28;20620;-82
2024/03/02 07:09:55;;;;;;;33.13;19.15;;;7.70;99.90;;;-148.53;100.00;63986.66;5039431;28;20069;-81
2024/03/02 07:12:20;;;;;;;32.08;17.75;;;7.80;99.90;;;-148.53;100.00;63986.66;5032609;28;20048;-81
2024/03/02 07:15:11;;;;;;;33.88;19.25;;;7.80;99.90;;;-148.53;100.00;63986.66;5028267;28;20385;-81
2024/03/02 07:17:37;;;;;;;33.05;18.90;;;7.80;99.90;;;-148.53;100.00;63986.66;5030028;28;20052;-81
2024/03/02 07:20:03;;;;;;;34.42;19.42;;;7.80;99.90;;;-148.53;100.00;63986.66;5029257;28;20108;-79
2024/03/02 07:22:29;;;;;;;33.83;19.48;;;7.90;99.90;;;-148.53;100.00;63986.66;5022197;28;20034;-79
2024/03/02 07:24:55;;;;;;;33.33;19.90;;;7.90;99.90;;;-148.53;100.00;63986.66;5023058;28;20029;-81
2024/03/02 07:27:21;;;;;;;34.42;18.60;;;8.00;99.90;;;-148.53;100.00;63986.66;5023577;28;20048;-83
2024/03/02 07:29:47;;;;;;;31.40;18.63;;;8.10;99.90;;;-148.53;100.00;63986.66;5027173;28;20176;-80
2024/03/02 07:32:12;;;;;;;33.47;18.60;;;8.20;99.90;;;-148.53;100.00;63986.66;5026693;28;20037;-81
2024/03/02 07:34:38;;;;;;;34.20;19.80;;;8.30;99.90;;;-148.53;100.00;63986.66;5025069;28;20029;-85
2024/03/02 07:37:04;;;;;;;31.08;17.88;;;8.40;99.90;;;-148.53;100.00;63986.66;5027166;28;20045;-87
2024/03/02 07:39:30;;;;;;;30.63;17.30;;;8.50;99.90;;;-148.53;100.00;63986.66;5040276;28;20045;-87
2024/03/02 07:41:56;;;;;;;32.50;17.63;;;8.60;99.90;;;-148.53;100.00;63986.66;5025325;28;20045;-86
2024/03/02 07:44:22;;;;;;;30.70;16.92;;;8.70;99.90;;;-148.53;100.00;63986.66;5042798;28;20123;-85
2024/03/02 07:46:51;;;;;;;29.10;16.77;;;8.80;99.90;;;-148.53;100.00;63986.66;5024514;28;20053;-83
2024/03/02 07:49:20;;;;;;;28.30;17.63;;;8.90;99.90;;;-148.53;100.00;63986.66;5025169;28;20052;-82
2024/03/02 07:51:46;;;;;;;30.63;18.05;;;9.00;99.90;;;-148.53;100.00;63986.66;5028232;28;20029;-80
2024/03/02 07:54:12;;;;;;;29.60;16.95;;;9.10;99.90;;;-148.53;100.00;63986.66;5023798;28;20045;-84
2024/03/02 07:56:38;;;;;;;29.20;16.92;;;9.20;99.90;;;-148.53;100.00;63986.66;5024162;28;20049;-86
2024/03/02 07:59:04;;;;;;;27.20;17.15;;;9.40;99.90;;;-148.53;100.00;63986.66;5016588;28;20041;-83
2024/03/02 08:01:32;;;;;;;29.42;17.38;;;9.60;99.90;;;-148.53;100.00;63986.66;5027628;28;20046;-83
2024/03/02 08:04:00;;;;;;;26.55;16.33;;;9.70;99.90;;;-148.53;100.00;63986.66;5028797;28;20033;-83
2024/03/02 08:06:27;;;;;;;30.67;17.20;;;9.90;99.90;;;-148.53;100.00;63986.66;5030803;28;20070;-83
2024/03/02 08:08:58;;;;;;;26.20;15.18;;;10.00;99.90;;;-148.53;100.00;63986.66;5047090;28;20401;-81
2024/03/02 08:11:24;;;;;;;28.02;16.70;;;9.90;99.90;;;-148.53;100.00;63986.66;5027634;28;20040;-83
2024/03/02 08:13:51;;;;;;;28.67;17.00;;;10.00;99.90;;;-148.53;100.00;63986.66;5029349;28;20037;-82
2024/03/02 08:16:21;;;;;;;27.80;15.90;;;10.20;99.90;;;-148.53;100.00;63986.66;5027956;28;20041;-82
2024/03/02 08:18:48;;;;;;;28.63;16.35;;;10.30;99.90;;;-148.53;100.00;63986.66;5026329;28;20057;-83
2024/03/02 08:21:14;;;;;;;28.17;16.42;;;10.40;99.90;;;-148.53;100.00;63986.66;5030806;28;20180;-83
2024/03/02 08:23:42;;;;;;;26.77;16.52;;;10.40;99.90;;;-148.53;100.00;63986.66;5029135;28;20458;-83
2024/03/02 08:26:09;;;;;;;28.90;17.00;;;10.50;99.90;;;-148.53;100.00;63986.66;5029923;28;20171;-83
2024/03/02 08:28:35;;;;;;;26.13;15.68;;;10.50;99.90;;;-148.53;100.00;63986.66;5032060;28;20029;-83
2024/03/02 08:31:01;;;;;;;27.75;16.60;;;10.60;99.90;;;-148.53;100.00;63986.66;5029582;28;20045;-82
2024/03/02 08:33:27;;;;;;;25.48;16.67;;;;;;;-148.53;100.00;63986.66;5039419;28;20041;-83
2024/03/02 08:35:53;;;;;;;25.20;15.45;;;;;;;-148.53;100.00;63986.66;5036864;28;20418;-82
2024/03/02 08:38:19;;;;;;;20.40;14.32;;;;;;;-148.53;100.00;63986.66;5043255;28;20114;-83
2024/03/02 08:40:45;;;;;;;25.88;15.07;;;;;;;-148.53;100.00;63986.66;5045902;28;20068;-80
2024/03/02 08:43:11;;;;;;;24.92;13.95;;;;;;;-148.53;100.00;63986.66;5030073;28;20065;-82
2024/03/02 08:45:39;;;;;;;24.75;14.40;;;;;;;-148.53;100.00;63986.66;5016408;28;20116;-82
2024/03/02 08:48:07;;;;;;;25.75;14.57;;;;;;;-148.53;100.00;63986.66;5043678;28;20503;-80
2024/03/02 08:50:33;;;;;;;26.77;14.55;;;;;;;-148.53;100.00;63986.66;5033185;28;20037;-82
2024/03/02 08:52:59;;;;;;;25.13;14.52;;;;;;;-148.53;100.00;63986.66;5034784;28;20038;-81
2024/03/02 08:55:25;;;;;;;24.70;14.07;;;;;;;-148.53;100.00;63986.66;5022233;28;20042;-80
2024/03/02 08:57:51;;;;;;;23.60;13.45;;;;;;;-148.53;100.00;63986.66;5018307;28;20398;-80
2024/03/02 09:00:18;;;;;;;20.85;12.82;;;;;;;-148.53;100.00;63986.66;5015660;28;20041;-81
2024/03/02 09:02:45;;;;;;;25.13;13.48;;;;;;;-148.53;100.00;63986.66;5027075;28;20504;-79
2024/03/02 09:05:11;;;;;;;20.98;13.25;;;;;;;-148.53;100.00;63986.66;5013221;28;20076;-80
2024/03/02 09:07:38;;;;;;;20.60;12.38;;;;;;;-148.53;100.00;63986.66;5035973;28;20056;-81
2024/03/02 09:10:06;;;;;;;20.38;12.88;;;;;;;-148.53;100.00;63986.66;5018174;28;20037;-80
2024/03/02 09:12:32;;;;;;;22.95;13.90;;;;;;;-148.53;100.00;63986.66;5031530;28;20037;-80
2024/03/02 09:15:00;;;;;;;24.45;14.13;;;;;;;-148.53;100.00;63986.66;5033318;28;20034;-80
2024/03/02 09:17:26;;;;;;;23.55;14.07;;;;;;;-148.53;100.00;63986.66;5023627;28;20042;-79
2024/03/02 09:19:55;;;;;;;22.52;13.80;;;;;;;-148.53;100.00;63986.66;5021493;28;20041;-79
2024/03/02 09:22:21;;;;;;;21.60;12.18;;;;;;;-148.53;100.00;63986.66;5022173;28;20037;-79
2024/03/02 09:24:47;;;;;;;22.15;12.95;;;;;;;-148.53;100.00;63986.66;5013890;28;20167;-79
2024/03/02 09:27:14;;;;;;;21.45;13.02;;;;;;;-148.53;100.00;63986.66;5020521;28;20029;-82
2024/03/02 09:29:40;;;;;;;19.65;11.98;;;;;;;-148.53;100.00;63986.66;5026665;28;20511;-80
2024/03/02 09:32:07;;;;;;;21.73;12.77;;;;;;;-148.53;100.00;63986.66;5038699;28;20079;-81
2024/03/02 09:34:33;;;;;;;20.00;11.60;;;;;;;-148.53;100.00;63986.66;5020164;28;20037;-78
2024/03/02 09:37:00;;;;;;;20.58;11.60;;;;;;;-148.53;100.00;63986.66;5034879;28;20136;-81
2024/03/02 09:39:26;;;;;;;19.63;10.82;;;;;;;-148.53;100.00;63986.66;5035427;28;20298;-80
2024/03/02 09:41:53;;;;;;;19.25;11.10;;;;;;;-148.53;100.00;63986.66;5015102;28;20061;-79
2024/03/02 09:44:20;;;;;;;18.93;11.83;;;;;;;-148.53;100.00;63986.66;5018393;28;20410;-79
2024/03/02 09:46:49;;;;;;;17.90;10.90;;;;;;;-148.53;100.00;63986.66;5021319;28;20045;-78
2024/03/02 09:49:16;;;;;;;17.90;11.27;;;;;;;-148.53;100.00;63986.66;5027760;28;20033;-79
2024/03/02 09:51:48;;;;;;;19.20;11.10;;;;;;;-148.53;100.00;63986.66;5018383;28;20065;-78
2024/03/02 09:54:17;;;;;;;19.30;11.45;;;;;;;-148.53;100.00;63986.66;5018035;28;20067;-78
2024/03/02 09:56:44;;;;;;;17.58;10.38;;;;;;;-148.53;100.00;63986.66;5014521;28;20038;-77
2024/03/02 09:59:10;;;;;;;16.30;9.85;;;;;;;-148.53;100.00;63986.66;5023694;28;20033;-80
2024/03/02 10:01:36;;;;;;;19.20;10.23;;;;;;;-148.53;100.00;63986.66;5020091;28;20042;-79
2024/03/02 10:04:05;;;;;;;17.67;10.55;;;;;;;-148.53;100.00;63986.66;5020229;28;20044;-79